createdAt,value
2019-03-10T00:00:36.426Z,6.64
2019-03-10T00:03:05.352Z,6.35
2019-03-10T00:05:33.895Z,6.06
2019-03-10T00:08:02.363Z,6.23
2019-03-10T00:10:30.842Z,6.40
2019-03-10T00:12:59.317Z,6.48
2019-03-10T00:15:27.847Z,6.76
2019-03-10T00:17:56.359Z,6.80
2019-03-10T00:20:24.907Z,7.00
2019-03-10T00:22:53.390Z,6.76
2019-03-10T00:25:22.001Z,6.74
2019-03-10T00:27:50.480Z,6.86
2019-03-10T00:30:19.279Z,6.94
2019-03-10T00:32:47.886Z,6.82
2019-03-10T00:35:16.525Z,7.16
2019-03-10T00:37:45.827Z,7.20
2019-03-10T00:40:26.729Z,6.90
2019-03-10T00:43:01.242Z,6.87
2019-03-10T00:46:06.289Z,6.96
2019-03-10T00:49:10.142Z,6.93
2019-03-10T00:51:56.057Z,6.85
2019-03-10T00:54:24.532Z,6.76
2019-03-10T00:56:53.087Z,6.78
2019-03-10T00:59:21.921Z,6.84
2019-03-10T01:01:50.409Z,6.79
2019-03-10T01:04:18.866Z,7.14
2019-03-10T01:06:47.420Z,7.09
2019-03-10T01:09:15.893Z,6.95
2019-03-10T01:11:44.821Z,7.05
2019-03-10T01:14:14.581Z,6.91
2019-03-10T01:16:43.553Z,7.00
2019-03-10T01:19:12.300Z,6.86
2019-03-10T01:21:41.302Z,6.83
2019-03-10T01:24:09.794Z,6.93
2019-03-10T01:26:38.262Z,6.79
2019-03-10T01:29:06.809Z,6.93
2019-03-10T01:32:01.079Z,6.66
2019-03-10T01:34:50.896Z,6.57
2019-03-10T01:37:19.356Z,6.70
2019-03-10T01:39:47.865Z,6.46
2019-03-10T01:42:16.350Z,6.67
2019-03-10T01:44:44.822Z,6.95
2019-03-10T01:47:13.325Z,6.92
2019-03-10T01:49:41.817Z,6.89
2019-03-10T01:52:10.349Z,6.55
2019-03-10T01:54:38.814Z,6.68
2019-03-10T01:57:07.288Z,6.38
2019-03-10T01:59:35.745Z,6.28
2019-03-10T02:02:04.238Z,6.35
2019-03-10T02:04:32.749Z,6.52
2019-03-10T02:07:01.184Z,6.39
2019-03-10T02:09:29.649Z,6.15
2019-03-10T02:11:58.147Z,6.20
2019-03-10T02:14:26.600Z,6.59
2019-03-10T02:16:55.082Z,6.31
2019-03-10T02:19:23.572Z,6.50
2019-03-10T02:21:52.035Z,6.21
2019-03-10T02:24:23.949Z,6.27
2019-03-10T02:26:50.693Z,6.72
2019-03-10T02:29:19.182Z,6.53
2019-03-10T02:31:47.662Z,6.24
2019-03-10T02:34:16.161Z,6.20
2019-03-10T02:36:44.609Z,6.22
2019-03-10T02:39:13.144Z,6.51
2019-03-10T02:41:41.613Z,6.49
2019-03-10T02:44:10.142Z,6.31
2019-03-10T02:46:38.633Z,6.39
2019-03-10T02:49:07.105Z,6.29
2019-03-10T02:51:35.591Z,6.50
2019-03-10T02:54:04.170Z,6.51
2019-03-10T02:56:32.641Z,6.58
2019-03-10T02:59:01.105Z,6.23
2019-03-10T03:01:29.625Z,6.23
2019-03-10T03:03:58.094Z,5.99
2019-03-10T03:06:26.558Z,5.92
2019-03-10T03:08:55.039Z,5.92
2019-03-10T03:11:23.502Z,5.69
2019-03-10T03:13:51.974Z,6.02
2019-03-10T03:16:20.469Z,5.91
2019-03-10T03:18:48.981Z,5.90
2019-03-10T03:21:17.429Z,5.65
2019-03-10T03:23:45.926Z,5.57
2019-03-10T03:26:14.378Z,5.36
2019-03-10T03:28:42.873Z,5.47
2019-03-10T03:31:11.429Z,5.08
2019-03-10T03:33:39.907Z,4.83
2019-03-10T03:36:29.684Z,4.94
2019-03-10T03:39:04.223Z,4.82
2019-03-10T03:41:32.698Z,4.30
2019-03-10T03:44:01.178Z,4.52
2019-03-10T03:46:29.659Z,4.26
2019-03-10T03:48:58.116Z,4.33
2019-03-10T03:51:29.141Z,4.21
2019-03-10T03:53:57.598Z,4.54
2019-03-10T03:56:26.083Z,4.62
2019-03-10T03:58:54.565Z,4.35
2019-03-10T04:01:36.637Z,4.59
2019-03-10T04:04:05.303Z,4.55
2019-03-10T04:06:33.770Z,4.48
2019-03-10T04:09:02.230Z,4.44
2019-03-10T04:11:30.695Z,4.71
2019-03-10T04:13:59.161Z,4.35
2019-03-10T04:16:27.665Z,4.47
2019-03-10T04:18:56.246Z,4.64
2019-03-10T04:21:24.673Z,4.49
2019-03-10T04:23:53.161Z,4.49
2019-03-10T04:26:21.636Z,4.51
2019-03-10T04:28:50.124Z,4.49
2019-03-10T04:31:18.586Z,4.25
2019-03-10T04:33:47.081Z,4.44
2019-03-10T04:36:15.560Z,4.55
2019-03-10T04:38:44.023Z,4.26
2019-03-10T04:41:12.504Z,4.36
2019-03-10T04:43:40.965Z,4.41
2019-03-10T04:46:09.444Z,4.56
2019-03-10T04:48:37.919Z,4.52
2019-03-10T04:51:06.404Z,4.59
2019-03-10T04:53:34.861Z,4.66
2019-03-10T04:56:07.831Z,4.49
2019-03-10T04:58:37.964Z,4.45
2019-03-10T05:01:06.433Z,4.49
2019-03-10T05:03:34.920Z,4.61
2019-03-10T05:06:03.377Z,4.81
2019-03-10T05:08:31.899Z,4.56
2019-03-10T05:11:00.334Z,4.85
2019-03-10T05:13:28.797Z,4.63
2019-03-10T05:15:57.270Z,4.47
2019-03-10T05:18:25.798Z,4.61
2019-03-10T05:20:54.311Z,4.70
2019-03-10T05:23:31.699Z,4.79
2019-03-10T05:26:00.551Z,4.81
2019-03-10T05:28:31.132Z,4.59
2019-03-10T05:30:59.784Z,4.67
2019-03-10T05:33:28.309Z,5.04
2019-03-10T05:35:56.793Z,4.84
2019-03-10T05:38:25.263Z,4.85
2019-03-10T05:40:53.742Z,4.84
2019-03-10T05:43:22.209Z,5.21
2019-03-10T05:45:50.703Z,5.17
2019-03-10T05:48:19.236Z,5.01
2019-03-10T05:50:47.735Z,5.17
2019-03-10T05:53:16.494Z,5.25
2019-03-10T05:55:45.142Z,5.49
2019-03-10T05:58:13.629Z,5.04
2019-03-10T06:00:43.260Z,5.13
2019-03-10T06:03:12.034Z,4.95
2019-03-10T06:05:40.500Z,5.18
2019-03-10T06:08:08.997Z,5.18
2019-03-10T06:10:37.464Z,5.24
2019-03-10T06:13:05.977Z,5.19
2019-03-10T06:15:34.453Z,5.65
2019-03-10T06:18:13.132Z,5.70
2019-03-10T06:20:33.155Z,5.93
2019-03-10T06:23:01.655Z,5.75
2019-03-10T06:25:30.125Z,5.78
2019-03-10T06:27:58.591Z,5.53
2019-03-10T06:30:27.072Z,5.69
2019-03-10T06:32:55.540Z,5.78
2019-03-10T06:35:24.029Z,5.65
2019-03-10T06:37:52.489Z,5.68
2019-03-10T06:40:31.368Z,6.21
2019-03-10T06:42:51.179Z,5.79
2019-03-10T06:45:19.673Z,5.82
2019-03-10T06:47:48.149Z,5.88
2019-03-10T06:50:16.626Z,5.97
2019-03-10T06:52:45.125Z,6.19
2019-03-10T06:55:13.629Z,6.15
2019-03-10T06:57:42.122Z,6.14
2019-03-10T07:00:13.129Z,6.12
2019-03-10T07:02:41.622Z,6.55
2019-03-10T07:05:12.050Z,6.21
2019-03-10T07:07:40.598Z,5.94
2019-03-10T07:10:12.051Z,6.05
2019-03-10T07:12:40.531Z,6.26
2019-03-10T07:15:11.074Z,6.25
2019-03-10T07:17:39.594Z,6.12
2019-03-10T07:20:21.206Z,5.99
2019-03-10T07:22:49.669Z,6.06
2019-03-10T07:25:18.138Z,6.37
2019-03-10T07:28:03.241Z,6.34
2019-03-10T07:30:42.361Z,6.63
2019-03-10T07:33:21.732Z,6.51
2019-03-10T07:36:10.169Z,6.48
2019-03-10T07:38:42.709Z,6.99
2019-03-10T07:41:12.848Z,6.62
2019-03-10T07:43:45.957Z,6.67
2019-03-10T07:46:18.691Z,6.51
2019-03-10T07:49:04.957Z,6.52
2019-03-10T07:51:35.072Z,6.70
2019-03-10T07:54:05.203Z,7.11
2019-03-10T07:56:35.317Z,6.57
2019-03-10T07:59:14.600Z,6.65
2019-03-10T08:02:03.042Z,6.85
2019-03-10T08:04:36.198Z,6.56
2019-03-10T08:07:22.937Z,6.29
2019-03-10T08:09:58.518Z,6.50
2019-03-10T08:12:43.928Z,6.38
2019-03-10T08:15:19.896Z,6.76
2019-03-10T08:18:06.243Z,6.76
2019-03-10T08:20:54.503Z,6.58
2019-03-10T08:23:30.552Z,6.43
2019-03-10T08:26:00.667Z,6.62
2019-03-10T08:28:36.717Z,6.91
2019-03-10T08:31:13.030Z,7.25
2019-03-10T08:33:55.009Z,6.76
2019-03-10T08:36:27.813Z,7.28
2019-03-10T08:39:06.635Z,7.47
2019-03-10T08:41:36.773Z,7.54
2019-03-10T08:44:12.965Z,7.55
2019-03-10T08:46:48.891Z,7.43
2019-03-10T08:49:29.597Z,7.55
2019-03-10T08:52:02.599Z,7.63
2019-03-10T08:54:35.709Z,7.90
2019-03-10T08:57:17.991Z,7.64
2019-03-10T08:59:48.401Z,8.02
2019-03-10T09:02:24.468Z,7.68
2019-03-10T09:04:57.717Z,8.25
2019-03-10T09:07:37.660Z,8.09
2019-03-10T09:10:20.820Z,8.68
2019-03-10T09:13:06.270Z,8.67
2019-03-10T09:15:41.171Z,8.42
2019-03-10T09:18:27.867Z,8.14
2019-03-10T09:21:00.714Z,8.29
2019-03-10T09:23:36.599Z,8.15
2019-03-10T09:26:09.245Z,7.93
2019-03-10T09:28:55.540Z,7.99
2019-03-10T09:31:40.723Z,8.27
2019-03-10T09:34:26.776Z,8.11
2019-03-10T09:36:56.911Z,8.05
2019-03-10T09:39:30.999Z,7.81
2019-03-10T09:42:07.113Z,8.09
2019-03-10T09:44:42.989Z,8.57
2019-03-10T09:47:13.095Z,8.50
2019-03-10T09:49:46.350Z,8.16
2019-03-10T09:52:19.422Z,8.84
2019-03-10T09:54:52.512Z,8.63
2019-03-10T09:57:28.315Z,8.74
2019-03-10T10:00:04.188Z,8.56
2019-03-10T10:02:46.311Z,8.91
2019-03-10T10:05:15.718Z,8.71
2019-03-10T10:07:51.797Z,8.48
2019-03-10T10:10:28.105Z,8.50
2019-03-10T10:13:01.088Z,8.96
2019-03-10T10:15:34.198Z,8.41
2019-03-10T10:18:10.222Z,8.56
2019-03-10T10:20:56.935Z,8.30
2019-03-10T10:23:28.549Z,8.59
2019-03-10T10:26:11.139Z,8.26
2019-03-10T10:28:41.441Z,8.71
2019-03-10T10:31:27.992Z,8.31
2019-03-10T10:34:14.512Z,8.10
2019-03-10T10:37:00.889Z,8.42
2019-03-10T10:39:39.795Z,8.50
2019-03-10T10:42:12.357Z,8.56
2019-03-10T10:44:45.490Z,8.56
2019-03-10T10:47:21.684Z,8.60
2019-03-10T10:49:57.805Z,8.39
2019-03-10T10:52:30.661Z,8.79
2019-03-10T10:55:00.845Z,8.39
2019-03-10T10:57:47.423Z,8.73
2019-03-10T11:00:21.328Z,8.24
2019-03-10T11:03:03.275Z,7.71
2019-03-10T11:05:36.077Z,7.64
2019-03-10T11:08:06.339Z,7.71
2019-03-10T11:10:36.512Z,7.86
2019-03-10T11:13:06.757Z,8.02
2019-03-10T11:15:54.976Z,7.67
2019-03-10T11:18:30.757Z,7.76
2019-03-10T11:21:00.864Z,7.39
2019-03-10T11:23:40.090Z,7.76
2019-03-10T11:26:25.308Z,7.38
2019-03-10T11:29:03.789Z,7.16
2019-03-10T11:31:33.427Z,7.38
2019-03-10T11:34:06.235Z,7.27
2019-03-10T11:36:36.347Z,7.43
2019-03-10T11:39:17.641Z,7.57
2019-03-10T11:41:53.597Z,7.00
2019-03-10T11:44:38.519Z,6.41
2019-03-10T11:47:08.657Z,6.35
2019-03-10T11:49:48.031Z,6.32
2019-03-10T11:52:20.859Z,6.63
2019-03-10T11:54:57.004Z,6.25
2019-03-10T11:57:29.858Z,6.53
2019-03-10T12:00:05.690Z,6.63
2019-03-10T12:02:41.509Z,6.17
2019-03-10T12:05:13.192Z,6.42
2019-03-10T12:07:49.293Z,6.40
2019-03-10T12:10:17.793Z,6.40
2019-03-10T12:12:46.272Z,6.09
2019-03-10T12:15:15.084Z,6.08
2019-03-10T12:17:45.888Z,6.56
2019-03-10T12:20:14.583Z,6.47
2019-03-10T12:22:43.059Z,6.15
2019-03-10T12:25:13.978Z,5.88
2019-03-10T12:27:42.449Z,6.31
2019-03-10T12:30:13.583Z,6.79
2019-03-10T12:32:42.156Z,6.84
2019-03-10T12:35:11.595Z,6.34
2019-03-10T12:37:45.249Z,6.58
2019-03-10T12:40:13.776Z,6.60
2019-03-10T12:42:45.261Z,6.44
2019-03-10T12:45:15.627Z,6.36
2019-03-10T12:47:44.150Z,6.59
2019-03-10T12:50:13.860Z,6.99
2019-03-10T12:52:42.360Z,7.13
2019-03-10T12:55:11.200Z,7.23
2019-03-10T12:57:39.664Z,7.12
2019-03-10T13:00:16.022Z,6.83
2019-03-10T13:02:44.604Z,6.76
2019-03-10T13:05:13.357Z,7.33
2019-03-10T13:07:41.874Z,6.86
2019-03-10T13:10:12.576Z,7.31
2019-03-10T13:12:40.578Z,7.28
2019-03-10T13:15:11.551Z,7.66
2019-03-10T13:17:40.036Z,7.54
2019-03-10T13:20:10.733Z,7.66
2019-03-10T13:22:39.225Z,7.83
2019-03-10T13:25:10.328Z,7.64
2019-03-10T13:27:38.806Z,7.38
2019-03-10T13:30:10.921Z,7.62
2019-03-10T13:32:39.707Z,7.45
2019-03-10T13:35:08.304Z,7.96
2019-03-10T13:37:36.793Z,7.91
2019-03-10T13:40:11.183Z,8.23
2019-03-10T13:42:39.747Z,7.89
2019-03-10T13:45:13.192Z,8.44
2019-03-10T13:47:41.810Z,8.22
2019-03-10T13:50:15.196Z,8.32
2019-03-10T13:52:43.759Z,8.76
2019-03-10T13:55:12.463Z,8.76
2019-03-10T13:57:40.974Z,8.68
2019-03-10T14:00:22.049Z,8.20
2019-03-10T14:02:50.613Z,7.90
2019-03-10T14:05:19.199Z,7.88
2019-03-10T14:07:47.732Z,8.23
2019-03-10T14:10:16.275Z,8.32
2019-03-10T14:12:44.743Z,8.05
2019-03-10T14:15:15.722Z,7.92
2019-03-10T14:17:44.863Z,8.14
2019-03-10T14:20:15.537Z,7.83
2019-03-10T14:22:44.243Z,7.49
2019-03-10T14:25:14.660Z,7.38
2019-03-10T14:27:43.225Z,7.65
2019-03-10T14:30:16.773Z,7.85
2019-03-10T14:32:45.287Z,7.53
2019-03-10T14:35:14.257Z,7.65
2019-03-10T14:37:42.750Z,7.49
2019-03-10T14:40:18.694Z,7.58
2019-03-10T14:42:47.203Z,7.80
2019-03-10T14:45:17.706Z,7.76
2019-03-10T14:47:46.310Z,7.98
2019-03-10T14:50:18.811Z,7.82
2019-03-10T14:52:47.273Z,7.54
2019-03-10T14:55:22.462Z,7.42
2019-03-10T14:57:51.002Z,8.21
2019-03-10T15:00:24.434Z,8.05
2019-03-10T15:02:53.027Z,8.01
2019-03-10T15:05:21.592Z,8.12
2019-03-10T15:07:50.059Z,7.89
2019-03-10T15:10:18.809Z,8.25
2019-03-10T15:12:47.274Z,7.84
2019-03-10T15:15:22.252Z,8.06
2019-03-10T15:17:48.204Z,8.38
2019-03-10T15:20:17.646Z,7.89
2019-03-10T15:22:46.311Z,7.63
2019-03-10T15:25:19.563Z,7.66
2019-03-10T15:27:48.134Z,7.83
2019-03-10T15:30:21.326Z,7.88
2019-03-10T15:32:49.825Z,8.35
2019-03-10T15:35:18.521Z,8.49
2019-03-10T15:37:46.985Z,8.08
2019-03-10T15:40:16.587Z,8.10
2019-03-10T15:42:45.514Z,8.17
2019-03-10T15:45:15.230Z,8.26
2019-03-10T15:47:43.761Z,8.09
2019-03-10T15:50:21.083Z,7.78
2019-03-10T15:52:50.242Z,7.61
2019-03-10T15:55:18.772Z,7.69
2019-03-10T15:57:50.391Z,7.82
2019-03-10T16:00:28.138Z,7.74
2019-03-10T16:02:56.703Z,7.86
2019-03-10T16:05:25.442Z,7.71
2019-03-10T16:07:53.989Z,8.11
2019-03-10T16:10:22.643Z,7.80
2019-03-10T16:12:51.276Z,8.17
2019-03-10T16:15:30.129Z,7.91
2019-03-10T16:17:58.619Z,8.01
2019-03-10T16:20:27.100Z,8.26
2019-03-10T16:22:56.661Z,7.91
2019-03-10T16:25:25.204Z,8.23
2019-03-10T16:27:53.693Z,8.27
2019-03-10T16:30:23.529Z,8.26
2019-03-10T16:32:52.071Z,7.88
2019-03-10T16:35:22.259Z,8.05
2019-03-10T16:37:51.042Z,8.14
2019-03-10T16:40:22.726Z,8.57
2019-03-10T16:42:51.187Z,8.26
2019-03-10T16:45:26.856Z,8.20
2019-03-10T16:47:57.611Z,8.18
2019-03-10T16:50:26.848Z,8.25
2019-03-10T16:52:55.342Z,8.32
2019-03-10T16:55:23.807Z,7.86
2019-03-10T16:57:52.367Z,7.87
2019-03-10T17:00:21.370Z,8.13
2019-03-10T17:02:52.487Z,7.99
2019-03-10T17:05:21.997Z,8.10
2019-03-10T17:07:50.723Z,8.08
2019-03-10T17:10:23.457Z,8.14
2019-03-10T17:12:52.067Z,8.09
2019-03-10T17:15:24.286Z,8.11
2019-03-10T17:17:52.831Z,8.24
2019-03-10T17:20:21.381Z,8.37
2019-03-10T17:22:50.036Z,8.19
2019-03-10T17:25:18.735Z,8.11
2019-03-10T17:27:47.452Z,8.02
2019-03-10T17:30:18.985Z,8.14
2019-03-10T17:32:47.477Z,8.19
2019-03-10T17:35:18.986Z,8.44
2019-03-10T17:37:48.689Z,8.06
2019-03-10T17:40:23.372Z,7.97
2019-03-10T17:42:52.126Z,8.21
2019-03-10T17:45:24.696Z,7.80
2019-03-10T17:47:53.236Z,7.83
2019-03-10T17:50:21.988Z,7.88
2019-03-10T17:52:51.000Z,8.16
2019-03-10T17:55:20.667Z,8.17
2019-03-10T17:57:49.251Z,8.35
2019-03-10T18:00:29.205Z,8.32
2019-03-10T18:02:57.713Z,8.66
2019-03-10T18:05:26.180Z,8.26
2019-03-10T18:07:54.862Z,8.17
2019-03-10T18:10:23.411Z,8.25
2019-03-10T18:12:51.917Z,8.08
2019-03-10T18:18:09.591Z,8.20
2019-03-10T18:20:38.076Z,8.19
2019-03-10T18:23:06.571Z,8.05
2019-03-10T18:25:35.137Z,8.14
2019-03-10T18:28:06.062Z,8.70
2019-03-10T18:30:34.777Z,8.16
2019-03-10T18:33:03.325Z,8.21
2019-03-10T18:35:31.826Z,8.28
2019-03-10T18:38:00.293Z,8.24
2019-03-10T18:40:29.046Z,8.27
2019-03-10T18:42:57.528Z,7.98
2019-03-10T18:45:26.074Z,8.20
2019-03-10T18:47:54.598Z,8.21
2019-03-10T18:50:25.348Z,8.18
2019-03-10T18:52:53.842Z,8.17
2019-03-10T18:55:22.843Z,8.34
2019-03-10T18:57:51.360Z,8.48
2019-03-10T19:00:27.065Z,8.25
2019-03-10T19:02:55.806Z,8.35
2019-03-10T19:05:24.410Z,8.25
2019-03-10T19:07:53.107Z,8.37
2019-03-10T19:10:21.573Z,8.28
2019-03-10T19:12:50.103Z,8.55
2019-03-10T19:15:24.092Z,8.55
2019-03-10T19:17:52.556Z,8.57
2019-03-10T19:20:21.060Z,8.65
2019-03-10T19:22:49.530Z,8.64
2019-03-10T19:25:18.178Z,8.64
2019-03-10T19:27:46.916Z,8.99
2019-03-10T19:30:22.315Z,9.27
2019-03-10T19:32:50.946Z,8.88
2019-03-10T19:35:19.477Z,9.02
2019-03-10T19:37:48.042Z,8.75
2019-03-10T19:40:21.144Z,9.11
2019-03-10T19:42:49.795Z,9.15
2019-03-10T19:45:22.284Z,9.66
2019-03-10T19:47:50.852Z,9.73
2019-03-10T19:50:27.351Z,9.26
2019-03-10T19:52:55.644Z,9.16
2019-03-10T19:55:24.136Z,9.20
2019-03-10T19:57:52.777Z,9.79
2019-03-10T20:00:22.193Z,9.24
2019-03-10T20:02:50.765Z,9.25
2019-03-10T20:05:19.299Z,9.32
2019-03-10T20:07:47.903Z,8.90
2019-03-10T20:10:17.941Z,9.08
2019-03-10T20:12:48.044Z,9.54
2019-03-10T20:15:18.057Z,9.23
2019-03-10T20:17:46.640Z,9.31
2019-03-10T20:20:26.341Z,9.45
2019-03-10T20:22:54.992Z,9.84
2019-03-10T20:25:23.451Z,9.39
2019-03-10T20:27:51.933Z,9.40
2019-03-10T20:30:22.808Z,9.96
2019-03-10T20:32:51.275Z,9.95
2019-03-10T20:35:19.965Z,10.25
2019-03-10T20:37:48.509Z,10.21
2019-03-10T20:40:21.712Z,9.28
2019-03-10T20:42:50.252Z,8.81
2019-03-10T20:45:18.925Z,8.66
2019-03-10T20:47:48.262Z,8.74
2019-03-10T20:50:17.876Z,8.84
2019-03-10T20:52:46.421Z,8.70
2019-03-10T20:55:15.655Z,8.81
2019-03-10T20:57:44.659Z,8.69
2019-03-10T21:00:18.263Z,8.72
2019-03-10T21:02:46.863Z,8.79
2019-03-10T21:05:15.482Z,9.28
2019-03-10T21:07:46.278Z,9.53
2019-03-10T21:10:22.693Z,9.23
2019-03-10T21:12:51.341Z,9.30
2019-03-10T21:15:21.099Z,9.34
2019-03-10T21:17:49.645Z,9.48
2019-03-10T21:20:25.151Z,9.18
2019-03-10T21:22:53.692Z,9.14
2019-03-10T21:25:26.962Z,9.09
2019-03-10T21:27:55.599Z,9.16
2019-03-10T21:30:26.351Z,9.03
2019-03-10T21:32:54.917Z,8.91
2019-03-10T21:35:23.384Z,8.83
2019-03-10T21:37:51.868Z,8.92
2019-03-10T21:40:28.468Z,8.92
2019-03-10T21:42:57.047Z,8.69
2019-03-10T21:45:25.603Z,8.95
2019-03-10T21:47:54.128Z,8.69
2019-03-10T21:50:22.693Z,9.01
2019-03-10T21:52:51.194Z,9.26
2019-03-10T21:55:19.697Z,8.83
2019-03-10T21:57:48.232Z,8.64
2019-03-10T22:00:20.569Z,8.33
2019-03-10T22:02:49.133Z,9.12
2019-03-10T22:05:18.145Z,9.49
2019-03-10T22:07:46.700Z,9.40
2019-03-10T22:10:26.862Z,9.55
2019-03-10T22:12:48.516Z,9.86
2019-03-10T22:15:18.009Z,9.07
2019-03-10T22:17:46.744Z,8.52
2019-03-10T22:20:18.783Z,8.14
2019-03-10T22:22:50.037Z,8.21
2019-03-10T22:25:18.110Z,7.65
2019-03-10T22:27:46.688Z,7.54
2019-03-10T22:30:20.170Z,7.24
2019-03-10T22:32:48.637Z,7.03
2019-03-10T22:35:17.349Z,7.07
2019-03-10T22:37:45.980Z,7.05
2019-03-10T22:40:16.884Z,7.24
2019-03-10T22:42:45.442Z,7.32
2019-03-10T22:45:18.956Z,7.51
2019-03-10T22:47:47.416Z,7.75
2019-03-10T22:50:16.754Z,7.47
2019-03-10T22:52:46.086Z,7.87
2019-03-10T22:55:15.619Z,7.97
2019-03-10T22:57:44.488Z,8.02
2019-03-10T23:00:18.193Z,7.95
2019-03-10T23:02:46.641Z,7.98
2019-03-10T23:05:15.274Z,7.89
2019-03-10T23:07:43.780Z,7.89
2019-03-10T23:10:14.387Z,7.87
2019-03-10T23:12:43.053Z,8.13
2019-03-10T23:15:13.748Z,8.10
2019-03-10T23:17:42.513Z,8.08
2019-03-10T23:20:15.707Z,7.88
2019-03-10T23:22:44.184Z,8.02
2019-03-10T23:25:13.083Z,7.99
2019-03-10T23:27:41.802Z,7.94
2019-03-10T23:30:17.804Z,7.80
2019-03-10T23:32:46.355Z,8.09
2019-03-10T23:35:14.858Z,7.92
2019-03-10T23:37:43.324Z,8.05
2019-03-10T23:40:19.175Z,8.25
2019-03-10T23:42:47.688Z,8.28
2019-03-10T23:45:19.520Z,8.28
2019-03-10T23:47:48.248Z,8.19
2019-03-10T23:50:18.891Z,8.01
2019-03-10T23:52:47.614Z,8.06
2019-03-10T23:55:16.143Z,8.04
2019-03-10T23:57:44.638Z,8.19
